Time;durP1;ratioP1;P1;durP2;ratioP2;P2;SDS_P1;SDS_P2;PMS_P1;PMS_P2;Temp;Humidity;BMP_temperature;BMP_pressure;BME280_temperature;BME280_humidity;BME280_pressure;Samples;Min_cycle;Max_cycle;Signal;HPM_P1;HPM_P2
2022/03/13 00:01:13;;;;;;;3.47;1.98;;;;;;;10.28;100.00;101403.00;5228279;28;20032;-79
2022/03/13 00:03:43;;;;;;;3.80;1.90;;;;;;;10.30;100.00;101394.81;5228873;28;20021;-79
2022/03/13 00:06:14;;;;;;;4.90;2.35;;;;;;;10.20;100.00;101400.22;5231629;28;20032;-79
2022/03/13 00:08:55;;;;;;;3.83;2.25;;;;;;;10.20;100.00;101394.00;5230443;28;20029;-79
2022/03/13 00:11:27;;;;;;;3.20;1.98;;;;;;;10.23;100.00;101389.16;5231611;28;20103;-78
2022/03/13 00:13:58;;;;;;;3.35;1.85;;;;;;;10.23;100.00;101393.69;5214689;28;20037;-79
2022/03/13 00:16:29;;;;;;;3.38;2.00;;;;;;;10.17;100.00;101392.44;5231620;28;20032;-78
2022/03/13 00:18:59;;;;;;;5.53;2.50;;;;;;;10.12;100.00;101392.91;5231378;28;20276;-78
2022/03/13 00:21:30;;;;;;;4.00;2.03;;;;;;;10.11;100.00;101390.38;5209247;28;20040;-79
2022/03/13 00:24:01;;;;;;;4.88;2.30;;;;;;;10.07;100.00;101392.50;5226727;28;20033;-79
2022/03/13 00:26:34;;;;;;;4.68;2.00;;;;;;;10.05;100.00;101380.25;5224240;28;20392;-78
2022/03/13 00:29:06;;;;;;;4.47;2.30;;;;;;;10.04;100.00;101376.75;5225317;28;20035;-79
2022/03/13 00:31:37;;;;;;;3.67;2.20;;;;;;;9.99;100.00;101375.47;5207084;28;20024;-78
2022/03/13 00:34:08;;;;;;;4.28;2.40;;;;;;;9.85;100.00;101374.16;5207122;28;20024;-78
2022/03/13 00:36:40;;;;;;;5.50;2.38;;;;;;;9.78;100.00;101373.03;5224996;28;20499;-79
2022/03/13 00:39:11;;;;;;;3.33;1.90;;;;;;;9.80;100.00;101371.06;5225023;28;20025;-78
2022/03/13 00:41:42;;;;;;;5.35;2.38;;;;;;;9.89;100.00;101369.31;5225318;28;20017;-78
2022/03/13 00:44:13;;;;;;;5.03;2.50;;;;;;;9.85;100.00;101366.13;5223744;28;20033;-78
2022/03/13 00:46:44;;;;;;;5.28;2.42;;;;;;;9.84;100.00;101359.06;5225398;28;20017;-78
2022/03/13 00:49:14;;;;;;;6.82;2.78;;;;;;;9.84;100.00;101357.25;5223901;28;20028;-78
2022/03/13 00:51:45;;;;;;;3.33;2.10;;;;;;;9.83;100.00;101349.31;5227278;28;20150;-78
2022/03/13 00:54:15;;;;;;;3.30;2.25;;;;;;;9.79;100.00;101351.47;5231012;28;20032;-78
2022/03/13 00:56:46;;;;;;;7.43;2.30;;;;;;;9.77;100.00;101349.94;5230273;28;20043;-79
2022/03/13 00:59:17;;;;;;;5.70;2.50;;;;;;;9.68;100.00;101356.16;5227538;28;20033;-79
2022/03/13 01:01:48;;;;;;;3.75;2.22;;;;;;;9.68;100.00;101346.28;5227864;28;20025;-79
2022/03/13 01:04:18;;;;;;;4.65;2.10;;;;;;;9.62;100.00;101338.84;5224385;28;20028;-78
2022/03/13 01:06:49;;;;;;;3.47;2.00;;;;;;;9.65;100.00;101335.06;5225669;28;20029;-78
2022/03/13 01:09:19;;;;;;;3.05;1.88;;;;;;;9.67;100.00;101328.53;5225289;28;20428;-79
2022/03/13 01:11:50;;;;;;;3.10;1.92;;;;;;;9.67;100.00;101325.84;5225103;28;20031;-78
2022/03/13 01:14:23;;;;;;;3.25;2.10;;;;;;;9.72;100.00;101333.44;5223976;28;20021;-79
2022/03/13 01:17:12;;;;;;;3.42;2.00;;;;;;;9.74;100.00;101329.66;5225936;28;20050;-78
2022/03/13 01:19:43;;;;;;;4.55;2.60;;;;;;;9.78;100.00;101322.97;5225585;28;20043;-78
2022/03/13 01:22:13;;;;;;;3.08;2.17;;;;;;;9.77;100.00;101323.13;5225019;28;20024;-78
2022/03/13 01:24:45;;;;;;;4.35;2.53;;;;;;;9.72;100.00;101320.06;5225797;28;20396;-77
2022/03/13 01:27:16;;;;;;;4.40;2.10;;;;;;;9.73;100.00;101330.63;5224837;28;20036;-77
2022/03/13 01:29:47;;;;;;;5.03;2.42;;;;;;;9.71;100.00;101324.56;5225642;28;20017;-78
2022/03/13 01:32:18;;;;;;;5.35;2.90;;;;;;;9.72;100.00;101322.75;5225682;28;20036;-77
2022/03/13 01:34:51;;;;;;;4.75;2.40;;;;;;;9.72;100.00;101325.41;5224769;28;20017;-77
2022/03/13 01:37:40;;;;;;;3.80;2.20;;;;;;;9.75;100.00;101325.13;5224551;28;20064;-77
2022/03/13 01:40:13;;;;;;;2.80;1.98;;;;;;;9.68;100.00;101318.66;5225646;28;20031;-78
2022/03/13 01:42:44;;;;;;;5.78;2.92;;;;;;;9.63;100.00;101323.63;5225261;28;20025;-78
2022/03/13 01:45:17;;;;;;;6.43;2.83;;;;;;;9.58;100.00;101319.53;5222854;28;20025;-78
2022/03/13 01:47:48;;;;;;;4.70;2.42;;;;;;;9.54;100.00;101320.88;5224429;28;20025;-78
2022/03/13 01:50:19;;;;;;;6.38;2.60;;;;;;;9.53;100.00;101321.00;5225421;28;20378;-78
2022/03/13 01:52:49;;;;;;;7.40;2.90;;;;;;;9.49;100.00;101323.13;5224365;28;20520;-77
2022/03/13 01:55:20;;;;;;;6.38;2.47;;;;;;;9.39;100.00;101321.47;5224380;28;20385;-78
2022/03/13 01:57:51;;;;;;;4.55;2.97;;;;;;;9.34;100.00;101317.41;5224520;28;20025;-78
2022/03/13 02:00:21;;;;;;;6.07;3.00;;;;;;;9.25;100.00;101317.44;5223885;28;20033;-77
2022/03/13 02:02:52;;;;;;;4.82;2.65;;;;;;;9.24;100.00;101313.09;5228324;28;20481;-77
2022/03/13 02:05:35;;;;;;;2.85;2.10;;;;;;;9.26;100.00;101314.63;5227510;28;20029;-77
2022/03/13 02:08:16;;;;;;;4.55;2.72;;;;;;;9.29;100.00;101319.69;5227294;28;20028;-77
2022/03/13 02:10:54;;;;;;;4.55;2.70;;;;;;;9.25;100.00;101320.13;5228367;28;20374;-78
2022/03/13 02:13:25;;;;;;;5.47;2.75;;;;;;;9.25;100.00;101322.81;5227059;28;20028;-78
2022/03/13 02:15:55;;;;;;;4.53;2.78;;;;;;;9.28;100.00;101327.84;5227723;28;20055;-78
2022/03/13 02:18:26;;;;;;;4.15;2.60;;;;;;;9.23;100.00;101316.72;5228603;28;20023;-78
2022/03/13 02:20:57;;;;;;;4.60;2.53;;;;;;;9.26;100.00;101319.13;5228219;28;20074;-77
2022/03/13 02:23:28;;;;;;;4.55;2.65;;;;;;;9.31;100.00;101319.53;5228163;28;20416;-78
2022/03/13 02:26:01;;;;;;;3.45;2.38;;;;;;;9.31;100.00;101320.38;5215768;28;20060;-77
2022/03/13 02:28:34;;;;;;;5.07;2.95;;;;;;;9.29;100.00;101310.81;5228390;28;20025;-77
2022/03/13 02:31:11;;;;;;;4.95;2.50;;;;;;;9.19;100.00;101321.56;5227402;28;20045;-77
2022/03/13 02:33:42;;;;;;;4.35;2.60;;;;;;;9.15;100.00;101317.47;5216301;28;20487;-77
2022/03/13 02:36:28;;;;;;;4.13;2.72;;;;;;;9.16;100.00;101313.81;5226260;28;20032;-77
2022/03/13 02:38:59;;;;;;;8.30;2.80;;;;;;;9.16;100.00;101313.81;5227864;28;20455;-77
2022/03/13 02:41:32;;;;;;;5.40;2.90;;;;;;;9.13;100.00;101307.91;5227923;28;20025;-77
2022/03/13 02:44:03;;;;;;;4.97;2.83;;;;;;;9.11;100.00;101307.22;5228031;28;20464;-77
2022/03/13 02:46:46;;;;;;;5.30;2.80;;;;;;;9.11;100.00;101307.22;5227434;28;20489;-77
2022/03/13 02:49:20;;;;;;;4.85;2.67;;;;;;;9.06;100.00;101313.00;5227003;28;20451;-77
2022/03/13 02:51:53;;;;;;;4.45;2.72;;;;;;;9.05;100.00;101309.47;5227682;28;20639;-77
2022/03/13 02:54:29;;;;;;;6.63;3.40;;;;;;;9.00;100.00;101290.34;5225711;28;20025;-77
2022/03/13 02:57:00;;;;;;;6.35;3.60;;;;;;;8.96;100.00;101291.59;5227042;28;20032;-77
2022/03/13 02:59:31;;;;;;;5.60;3.47;;;;;;;8.93;100.00;101291.88;5225627;28;20023;-78
2022/03/13 03:02:02;;;;;;;4.55;2.70;;;;;;;8.87;100.00;101279.09;5225818;28;20095;-77
2022/03/13 03:04:33;;;;;;;6.55;3.67;;;;;;;8.92;100.00;101284.84;5225209;28;20078;-78
2022/03/13 03:07:05;;;;;;;6.35;3.55;;;;;;;8.90;100.00;101269.94;5225596;28;20400;-78
2022/03/13 03:09:36;;;;;;;5.95;3.30;;;;;;;8.84;100.00;101270.53;5226931;28;20025;-78
2022/03/13 03:12:10;;;;;;;7.28;3.00;;;;;;;8.85;100.00;101266.84;5224957;28;20087;-78
2022/03/13 03:14:40;;;;;;;5.53;3.45;;;;;;;8.83;100.00;101269.66;5224960;28;20466;-78
2022/03/13 03:17:11;;;;;;;5.88;2.90;;;;;;;8.80;100.00;101270.81;5227905;28;20393;-77
2022/03/13 03:19:42;;;;;;;5.90;2.97;;;;;;;8.76;100.00;101272.06;5228441;28;20017;-79
2022/03/13 03:22:14;;;;;;;4.90;3.13;;;;;;;8.78;100.00;101271.94;5227156;28;20025;-77
2022/03/13 03:24:46;;;;;;;6.40;3.60;;;;;;;8.69;100.00;101273.66;5223208;28;20067;-78
2022/03/13 03:27:17;;;;;;;8.88;4.10;;;;;;;8.67;100.00;101272.09;5215397;28;20415;-78
2022/03/13 03:29:48;;;;;;;6.55;3.55;;;;;;;8.64;100.00;101275.91;5225867;28;20029;-78
2022/03/13 03:32:18;;;;;;;6.25;3.47;;;;;;;8.62;100.00;101274.34;5227506;28;20029;-77
2022/03/13 03:34:49;;;;;;;7.32;3.78;;;;;;;8.62;100.00;101277.03;5227065;28;20550;-77
2022/03/13 03:37:19;;;;;;;5.50;3.53;;;;;;;8.63;100.00;101274.19;5227689;28;20041;-77
2022/03/13 03:39:50;;;;;;;9.07;4.15;;;;;;;8.66;100.00;101284.63;5226936;28;20112;-77
2022/03/13 03:42:20;;;;;;;6.45;3.53;;;;;;;8.65;100.00;101280.28;5226909;28;20473;-78
2022/03/13 03:44:51;;;;;;;7.15;4.07;;;;;;;8.65;100.00;101276.75;5226172;28;20032;-77
2022/03/13 03:47:21;;;;;;;9.10;4.38;;;;;;;8.67;100.00;101282.78;5226097;28;20500;-77
2022/03/13 03:49:52;;;;;;;7.60;4.00;;;;;;;8.65;100.00;101280.28;5226865;28;20492;-77
2022/03/13 03:52:23;;;;;;;5.75;3.80;;;;;;;8.63;100.00;101281.38;5227452;28;20036;-77
2022/03/13 03:54:53;;;;;;;7.90;4.35;;;;;;;8.65;100.00;101279.44;5226416;28;20021;-77
2022/03/13 03:57:23;;;;;;;9.27;3.97;;;;;;;8.61;100.00;101278.88;5226096;28;20039;-77
2022/03/13 03:59:54;;;;;;;8.50;4.45;;;;;;;8.61;100.00;101281.53;5227620;28;20165;-78
2022/03/13 04:02:25;;;;;;;7.22;4.28;;;;;;;8.62;100.00;101271.69;5226770;28;20020;-77
2022/03/13 04:04:55;;;;;;;8.02;4.40;;;;;;;8.60;100.00;101281.69;5226019;28;20017;-77
2022/03/13 04:07:26;;;;;;;7.72;4.07;;;;;;;8.57;100.00;101278.28;5228087;28;20056;-78
2022/03/13 04:09:57;;;;;;;9.95;4.65;;;;;;;8.56;100.00;101279.28;5228037;28;20076;-78
2022/03/13 04:12:28;;;;;;;10.80;4.50;;;;;;;8.52;100.00;101272.53;5226348;28;20100;-78
2022/03/13 04:15:00;;;;;;;7.20;4.10;;;;;;;8.53;100.00;101279.59;5226604;28;20096;-79
2022/03/13 04:17:31;;;;;;;8.85;4.30;;;;;;;8.52;100.00;101277.03;5226857;28;20028;-79
2022/03/13 04:20:03;;;;;;;7.07;3.90;;;;;;;8.53;100.00;101278.72;5230493;28;20025;-79
2022/03/13 04:22:34;;;;;;;7.35;4.10;;;;;;;8.53;100.00;101273.38;5230554;28;20017;-79
2022/03/13 04:25:05;;;;;;;7.82;4.40;;;;;;;8.51;100.00;101281.53;5223781;28;20508;-79
2022/03/13 04:27:36;;;;;;;10.15;4.53;;;;;;;8.47;100.00;101276.63;5222308;28;20021;-79
2022/03/13 04:30:08;;;;;;;12.68;5.28;;;;;;;8.43;100.00;101275.22;5228927;28;20044;-79
2022/03/13 04:32:41;;;;;;;9.48;4.88;;;;;;;8.45;100.00;101270.59;5213105;28;20036;-79
2022/03/13 04:35:11;;;;;;;11.95;4.93;;;;;;;8.44;100.00;101263.56;5231283;28;20440;-79
2022/03/13 04:37:42;;;;;;;9.70;5.00;;;;;;;8.44;100.00;101269.75;5229324;28;20041;-79
2022/03/13 04:40:12;;;;;;;9.45;5.00;;;;;;;8.44;100.00;101263.56;5226034;28;20028;-79
2022/03/13 04:42:43;;;;;;;11.52;5.10;;;;;;;8.46;100.00;101266.91;5225736;28;20022;-78
2022/03/13 04:45:13;;;;;;;9.35;5.03;;;;;;;8.45;100.00;101266.06;5225377;28;20036;-78
2022/03/13 04:47:44;;;;;;;10.52;5.22;;;;;;;8.45;100.00;101268.75;5225710;28;20031;-79
2022/03/13 04:50:15;;;;;;;8.90;5.30;;;;;;;8.46;100.00;101265.09;5225361;28;20078;-79
2022/03/13 04:52:45;;;;;;;11.98;5.30;;;;;;;8.46;100.00;101264.25;5225633;28;20095;-78
2022/03/13 04:55:18;;;;;;;10.05;5.75;;;;;;;8.45;100.00;101260.72;5224096;28;20024;-79
2022/03/13 04:57:48;;;;;;;7.80;4.65;;;;;;;8.45;100.00;101267.91;5226680;28;20380;-78
2022/03/13 05:00:19;;;;;;;12.77;5.78;;;;;;;8.40;100.00;101262.16;5224540;28;20027;-78
2022/03/13 05:02:50;;;;;;;11.00;5.50;;;;;;;8.36;100.00;101258.91;5225007;28;20029;-78
2022/03/13 05:05:21;;;;;;;13.70;5.32;;;;;;;8.33;100.00;101248.44;5226597;28;20024;-79
2022/03/13 05:07:52;;;;;;;10.00;5.43;;;;;;;8.35;100.00;101254.50;5227220;28;20031;-79
2022/03/13 05:10:23;;;;;;;9.60;5.40;;;;;;;8.31;100.00;101253.94;5230414;28;20116;-78
2022/03/13 05:12:54;;;;;;;12.52;5.75;;;;;;;8.26;100.00;101245.50;5228029;28;20455;-78
2022/03/13 05:15:24;;;;;;;13.48;5.93;;;;;;;8.26;100.00;101245.50;5229681;28;20037;-79
2022/03/13 05:17:55;;;;;;;12.25;6.10;;;;;;;8.27;100.00;101232.97;5230524;28;20033;-79
2022/03/13 05:20:26;;;;;;;12.38;6.75;;;;;;;8.22;100.00;101236.06;5230065;28;20025;-78
2022/03/13 05:22:57;;;;;;;13.95;6.07;;;;;;;8.22;100.00;101237.91;5229847;28;20224;-78
2022/03/13 05:25:31;;;;;;;14.20;7.22;;;;;;;8.21;100.00;101234.41;5219488;28;20033;-78
2022/03/13 05:28:03;;;;;;;12.52;7.25;;;;;;;8.21;100.00;101226.38;5223465;28;20021;-78
2022/03/13 05:30:34;;;;;;;18.10;8.73;;;;;;;8.23;100.00;101224.44;5226402;28;20064;-78
2022/03/13 05:33:05;;;;;;;12.05;6.03;;;;;;;8.25;100.00;101225.13;5228171;28;20047;-79
2022/03/13 05:35:36;;;;;;;11.75;6.75;;;;;;;8.26;100.00;101223.28;5205786;28;20502;-78
2022/03/13 05:38:06;;;;;;;13.20;6.97;;;;;;;8.24;100.00;101219.94;5223650;28;20032;-78
2022/03/13 05:40:37;;;;;;;17.17;6.80;;;;;;;8.27;100.00;101211.59;5224389;28;20032;-78
2022/03/13 05:43:11;;;;;;;13.73;7.10;;;;;;;8.24;100.00;101209.22;5227594;28;20091;-79
2022/03/13 05:45:42;;;;;;;13.20;7.13;;;;;;;8.22;100.00;101208.50;5229556;28;20025;-79
2022/03/13 05:48:15;;;;;;;17.90;7.75;;;;;;;8.22;100.00;101213.84;5225594;28;20550;-79
2022/03/13 05:50:46;;;;;;;17.48;8.05;;;;;;;8.18;100.00;101217.78;5226556;28;20029;-79
2022/03/13 05:53:17;;;;;;;15.98;7.68;;;;;;;8.14;100.00;101219.94;5231709;28;20029;-79
2022/03/13 05:55:47;;;;;;;15.25;7.38;;;;;;;8.07;100.00;101212.59;5227546;28;20112;-78
2022/03/13 05:58:18;;;;;;;15.38;7.80;;;;;;;7.98;100.00;101214.28;5230288;28;20047;-79
2022/03/13 06:00:54;;;;;;;15.20;7.35;;;;;;;7.89;100.00;101213.31;5229757;28;20025;-79
2022/03/13 06:03:24;;;;;;;14.23;7.55;;;;;;;7.81;100.00;101215.81;5227570;28;20067;-79
2022/03/13 06:05:56;;;;;;;15.95;7.57;;;;;;;7.79;100.00;101223.16;5223550;28;20040;-76
2022/03/13 06:08:26;;;;;;;18.35;8.25;;;;;;;7.73;100.00;101227.22;5223904;28;20048;-76
2022/03/13 06:10:58;;;;;;;18.30;8.60;;;;;;;7.68;100.00;101231.25;5223500;28;20079;-76
2022/03/13 06:13:29;;;;;;;16.73;8.32;;;;;;;7.63;100.00;101234.38;5222508;28;20021;-75
2022/03/13 06:15:59;;;;;;;18.77;8.68;;;;;;;7.59;100.00;101232.97;5223485;28;20063;-75
2022/03/13 06:18:32;;;;;;;24.75;9.27;;;;;;;7.53;100.00;101230.84;5222484;28;20115;-76
2022/03/13 06:21:05;;;;;;;17.55;8.93;;;;;;;7.52;100.00;101231.78;5223498;28;20025;-75
2022/03/13 06:23:35;;;;;;;17.67;8.93;;;;;;;7.52;100.00;101235.31;5221863;28;20033;-74
2022/03/13 06:26:06;;;;;;;20.15;9.95;;;;;;;7.51;100.00;101238.97;5210048;28;20047;-76
2022/03/13 06:28:37;;;;;;;17.42;8.93;;;;;;;7.48;100.00;101239.25;5224786;28;20032;-74
2022/03/13 06:31:08;;;;;;;22.58;10.38;;;;;;;7.43;100.00;101230.81;5223976;28;20017;-74
2022/03/13 06:33:38;;;;;;;22.10;10.57;;;;;;;7.40;100.00;101235.56;5224680;28;20024;-76
2022/03/13 06:36:10;;;;;;;24.38;10.65;;;;;;;7.40;100.00;101246.25;5223532;28;20019;-75
2022/03/13 06:38:41;;;;;;;24.33;11.55;;;;;;;7.40;100.00;101241.75;5223760;28;20055;-74
2022/03/13 06:41:11;;;;;;;24.42;11.73;;;;;;;7.39;100.00;101248.06;5223135;28;20064;-76
2022/03/13 06:43:42;;;;;;;23.05;11.38;;;;;;;7.39;100.00;101244.56;5222612;28;20033;-75
2022/03/13 06:46:12;;;;;;;22.92;11.48;;;;;;;7.44;100.00;101247.69;5216714;28;20517;-75
2022/03/13 06:48:42;;;;;;;25.00;11.13;;;;;;;7.49;100.00;101246.28;5195982;28;20017;-75
2022/03/13 06:51:13;;;;;;;27.88;11.52;;;;;;;7.56;100.00;101249.25;5224564;28;20503;-75
2022/03/13 06:53:43;;;;;;;22.48;11.02;;;;;;;7.65;100.00;101256.44;5224465;28;20497;-74
2022/03/13 06:56:14;;;;;;;23.38;11.38;;;;;;;7.75;100.00;101253.78;5223006;28;20021;-74
2022/03/13 06:58:44;;;;;;;21.45;11.23;;;;;;;7.87;100.00;101246.47;5224911;28;20466;-75
2022/03/13 07:01:15;;;;;;;20.83;10.88;;;;;;;8.00;100.00;101255.91;5224040;28;20028;-75
2022/03/13 07:03:46;;;;;;;24.55;11.27;;;;;;;8.15;100.00;101252.84;5224529;28;20047;-75
2022/03/13 07:06:16;;;;;;;25.45;11.32;;;;;;;8.51;100.00;101251.28;5223983;28;20112;-75
2022/03/13 07:08:47;;;;;;;24.85;11.77;;;;;;;9.21;100.00;101257.16;5224823;28;20025;-75
2022/03/13 07:11:17;;;;;;;21.98;11.18;;;;;;;9.86;100.00;101247.19;5222851;28;20493;-75
2022/03/13 07:13:48;;;;;;;20.98;11.27;;;;;;;10.22;100.00;101242.69;5224009;28;20036;-75
2022/03/13 07:16:19;;;;;;;24.33;12.02;;;;;;;10.45;100.00;101250.28;5223759;28;20408;-74
2022/03/13 07:18:50;;;;;;;19.73;11.32;;;;;;;10.91;100.00;101243.72;5224565;28;20449;-74
2022/03/13 07:21:20;;;;;;;20.60;11.95;;;;;;;11.28;100.00;101245.25;5222471;28;20036;-75
2022/03/13 07:23:51;;;;;;;20.83;11.50;;;;;;;11.47;100.00;101236.09;5224951;28;20055;-83
2022/03/13 07:26:21;;;;;;;23.48;11.80;;;;;;;11.48;100.00;101237.78;5235807;28;20051;-81
2022/03/13 07:28:52;;;;;;;21.83;12.27;;;;;;;11.64;100.00;101241.34;5227169;28;20029;-83
2022/03/13 07:31:22;;;;;;;21.08;11.95;;;;;;;11.73;100.00;101241.38;5225420;28;20206;-79
2022/03/13 07:33:53;;;;;;;23.75;13.05;;;;;;;11.96;100.00;101237.09;5227362;28;20021;-78
2022/03/13 07:36:23;;;;;;;23.17;13.45;;;;;;;11.84;100.00;101241.09;5226829;28;20025;-77
2022/03/13 07:38:54;;;;;;;27.40;13.43;;;;;;;11.96;100.00;101239.78;5225797;28;20021;-77
2022/03/13 07:41:24;;;;;;;25.73;13.55;;;;;;;11.84;100.00;101236.56;5223907;28;20323;-78
2022/03/13 07:43:55;;;;;;;22.45;13.00;;;;;;;11.41;100.00;101232.22;5224247;28;20032;-78
2022/03/13 07:46:25;;;;;;;23.25;13.35;;;;;;;11.57;100.00;101239.50;5223484;28;20041;-78
2022/03/13 07:48:56;;;;;;;25.70;13.77;;;;;;;11.49;100.00;101231.41;5222943;28;20027;-78
2022/03/13 07:51:26;;;;;;;28.33;13.85;;;;;;;11.95;100.00;101230.06;5206527;28;20059;-78
2022/03/13 07:53:56;;;;;;;26.17;14.48;;;;;;;11.97;100.00;101229.88;5224294;28;20062;-77
2022/03/13 07:56:29;;;;;;;22.55;13.23;;;;;;;11.81;100.00;101230.66;5223601;28;20028;-77
2022/03/13 07:58:59;;;;;;;25.95;14.10;;;;;;;12.01;100.00;101228.53;5222436;28;20025;-78
2022/03/13 08:01:30;;;;;;;25.23;14.15;;;;;;;11.89;100.00;101233.38;5221989;28;20443;-78
2022/03/13 08:04:04;;;;;;;24.77;14.10;;;;;;;12.15;100.00;101230.59;5223769;28;20503;-79
2022/03/13 08:06:36;;;;;;;24.17;13.98;;;;;;;12.47;100.00;101234.28;5224465;28;20021;-78
2022/03/13 08:09:07;;;;;;;25.27;13.95;;;;;;;12.53;100.00;101234.44;5224922;28;20052;-77
2022/03/13 08:11:38;;;;;;;26.95;14.25;;;;;;;12.77;100.00;101232.72;5222923;28;20076;-77
2022/03/13 08:14:12;;;;;;;23.67;13.55;;;;;;;12.68;100.00;101237.28;5225842;28;20021;-78
2022/03/13 08:16:42;;;;;;;23.50;13.73;;;;;;;12.70;100.00;101230.72;5240032;28;20028;-78
2022/03/13 08:19:13;;;;;;;27.17;13.77;;;;;;;12.96;100.00;101226.97;5226742;28;20021;-77
2022/03/13 08:21:43;;;;;;;23.05;13.40;;;;;;;13.12;100.00;101234.97;5226585;28;20035;-77
2022/03/13 08:24:15;;;;;;;26.13;15.00;;;;;;;13.08;100.00;101230.13;5223657;28;20032;-77
2022/03/13 08:26:45;;;;;;;23.50;12.30;;;;;;;12.98;100.00;101237.56;5223748;28;21195;-78
2022/03/13 08:29:16;;;;;;;22.58;13.13;;;;;;;13.02;100.00;101233.50;5211817;28;20092;-78
2022/03/13 08:31:46;;;;;;;24.17;12.95;;;;;;;13.32;100.00;101230.06;5222331;28;20021;-78
2022/03/13 08:34:17;;;;;;;23.38;13.02;;;;;;;13.34;100.00;101235.25;5221654;28;20050;-78
2022/03/13 08:36:49;;;;;;;21.63;11.68;;;;;;;13.35;100.00;101226.16;5225452;28;20029;-78
2022/03/13 08:39:19;;;;;;;22.10;12.75;;;;;;;13.65;100.00;101230.72;5226990;28;20316;-78
2022/03/13 08:41:50;;;;;;;22.73;10.73;;;;;;;13.28;100.00;101234.13;5227608;28;20557;-78
2022/03/13 08:44:20;;;;;;;19.08;11.82;;;;;;;12.83;100.00;101218.56;5222708;28;20025;-76
2022/03/13 08:46:51;;;;;;;19.67;10.88;;;;;;;12.92;100.00;101220.22;5224077;28;20028;-84
2022/03/13 08:49:21;;;;;;;22.15;10.73;;;;;;;12.92;100.00;101225.63;5209963;28;20047;-81
2022/03/13 08:51:52;;;;;;;20.85;10.63;;;;;;;12.92;100.00;101220.22;5227972;28;20027;-82
2022/03/13 08:54:22;;;;;;;22.48;11.00;;;;;;;13.50;100.00;101219.00;5229862;28;20024;-81
2022/03/13 08:56:53;;;;;;;19.60;10.55;;;;;;;13.18;100.00;101219.97;5247252;28;20021;-77
2022/03/13 08:59:23;;;;;;;19.77;10.13;;;;;;;13.24;100.00;101216.63;5223238;28;20489;-76
2022/03/13 09:01:54;;;;;;;21.15;10.75;;;;;;;13.28;100.00;101212.56;5235687;28;20028;-76
2022/03/13 09:04:24;;;;;;;16.73;10.18;;;;;;;13.36;100.00;101207.16;5222325;28;20377;-75
2022/03/13 09:06:55;;;;;;;17.98;10.15;;;;;;;13.40;100.00;101213.88;5222661;28;20032;-74
2022/03/13 09:09:25;;;;;;;16.70;9.55;;;;;;;13.53;100.00;101213.28;5222640;28;20035;-76
2022/03/13 09:11:57;;;;;;;17.38;9.95;;;;;;;14.21;100.00;101204.41;5234227;28;20428;-73
2022/03/13 09:14:27;;;;;;;18.70;10.00;;;;;;;14.55;100.00;101208.50;5221429;28;20013;-74
2022/03/13 09:16:58;;;;;;;19.17;9.40;;;;;;;14.25;100.00;101203.00;5236275;28;20116;-73
2022/03/13 09:19:28;;;;;;;17.30;9.65;;;;;;;14.52;100.00;101208.03;5222559;28;20687;-74
2022/03/13 09:21:59;;;;;;;18.33;9.25;;;;;;;14.80;100.00;101210.97;5222540;28;20025;-75
2022/03/13 09:24:30;;;;;;;14.43;8.20;;;;;;;15.00;100.00;101215.63;5221432;28;20033;-73
2022/03/13 09:27:01;;;;;;;16.27;8.90;;;;;;;14.93;100.00;101212.00;5207859;28;20044;-72
2022/03/13 09:29:31;;;;;;;17.63;9.05;;;;;;;14.21;100.00;101204.41;5222062;28;20028;-72
2022/03/13 09:32:02;;;;;;;15.70;8.73;;;;;;;14.52;100.00;101208.03;5204283;28;20036;-72
2022/03/13 09:34:34;;;;;;;15.20;8.68;;;;;;;14.23;100.00;101199.66;5221739;28;20022;-73
2022/03/13 09:37:04;;;;;;;15.35;8.32;;;;;;;14.69;100.00;101198.75;5232655;28;20024;-72
2022/03/13 09:39:36;;;;;;;13.73;7.80;;;;;;;14.70;100.00;101195.03;5225317;28;20056;-72
2022/03/13 09:42:06;;;;;;;14.23;7.95;;;;;;;14.68;100.00;101192.50;5222310;28;20055;-72
2022/03/13 09:44:37;;;;;;;14.57;7.47;;;;;;;14.80;100.00;101200.97;5226559;28;20025;-72
2022/03/13 09:47:10;;;;;;;14.00;7.78;;;;;;;14.73;100.00;101195.50;5230824;28;20111;-71
2022/03/13 09:49:41;;;;;;;13.00;7.22;;;;;;;14.61;100.00;101186.19;5221991;28;20158;-72
2022/03/13 09:52:12;;;;;;;16.45;7.30;;;;;;;14.74;100.00;101196.34;5222959;28;20481;-72
2022/03/13 09:54:43;;;;;;;13.95;7.40;;;;;;;14.77;100.00;101191.41;5241349;28;20224;-72
2022/03/13 09:57:14;;;;;;;12.50;6.70;;;;;;;14.93;100.00;101203.06;5229628;28;20025;-71
2022/03/13 09:59:46;;;;;;;14.80;7.10;;;;;;;15.02;100.00;101193.84;5233831;28;20120;-72
2022/03/13 10:02:16;;;;;;;11.18;6.65;;;;;;;15.19;100.00;101194.47;5236221;28;20036;-72
2022/03/13 10:04:47;;;;;;;12.13;6.93;;;;;;;14.91;100.00;101192.44;5232047;28;20501;-72
2022/03/13 10:07:17;;;;;;;11.93;6.63;;;;;;;14.66;100.00;101199.97;5238263;28;20107;-72
2022/03/13 10:09:48;;;;;;;13.77;7.50;;;;;;;14.85;100.00;101192.31;5222475;28;20020;-72
2022/03/13 10:12:18;;;;;;;10.80;6.40;;;;;;;14.84;100.00;101196.91;5221187;28;20056;-71
2022/03/13 10:15:04;;;;;;;10.00;6.18;;;;;;;14.75;100.00;101182.63;5220843;28;20029;-73
2022/03/13 10:17:37;;;;;;;9.48;5.93;;;;;;;14.69;100.00;101186.09;5231648;28;20404;-72
2022/03/13 10:20:23;;;;;;;10.93;6.63;;;;;;;15.06;100.00;101186.16;5229279;28;20028;-71
2022/03/13 10:23:15;;;;;;;10.48;6.30;;;;;;;15.10;100.00;101195.59;5230020;28;20527;-72
2022/03/13 10:25:49;;;;;;;13.85;6.93;;;;;;;15.20;100.00;101179.91;5205162;28;20026;-72
2022/03/13 10:28:23;;;;;;;13.35;7.10;;;;;;;15.20;100.00;101190.72;5223869;28;20025;-73
2022/03/13 10:30:55;;;;;;;11.60;6.97;;;;;;;14.55;100.00;101184.19;5228032;28;20029;-73
2022/03/13 10:33:28;;;;;;;12.57;6.72;;;;;;;14.89;100.00;101189.06;5223886;28;20032;-73
2022/03/13 10:36:19;;;;;;;12.25;6.32;;;;;;;14.43;100.00;101177.56;5239397;28;20028;-74
2022/03/13 10:38:51;;;;;;;11.05;6.18;;;;;;;14.56;100.00;101175.09;5235850;28;20029;-74
2022/03/13 10:41:39;;;;;;;13.02;6.15;;;;;;;14.84;100.00;101177.16;5230594;28;20383;-74
2022/03/13 10:44:13;;;;;;;11.40;6.30;;;;;;;15.12;100.00;101174.63;5231831;28;20029;-74
2022/03/13 10:46:52;;;;;;;10.57;5.97;;;;;;;15.55;100.00;101175.56;5237581;28;20056;-75
2022/03/13 10:49:53;;;;;;;9.82;5.72;;;;;;;15.48;100.00;101178.19;5224559;28;20531;-73
2022/03/13 10:52:28;;;;;;;10.50;6.15;;;;;;;15.09;100.00;101166.91;5225093;28;20097;-73
2022/03/13 10:55:15;;;;;;;10.15;5.70;;;;;;;15.29;100.00;101160.72;5225276;28;20032;-72
2022/03/13 10:58:03;;;;;;;9.52;5.57;;;;;;;15.11;100.00;101165.69;5225278;28;20039;-73
2022/03/13 11:00:35;;;;;;;14.38;6.13;;;;;;;15.41;100.00;101162.91;5219961;28;20414;-72
2022/03/13 11:03:24;;;;;;;8.82;5.43;;;;;;;15.60;100.00;101158.75;5233074;28;20448;-72
2022/03/13 11:05:54;;;;;;;9.68;5.80;;;;;;;15.56;99.65;101147.50;5238236;28;20505;-72
2022/03/13 11:08:26;;;;;;;7.70;4.75;;;;;;;15.64;98.53;101158.22;5225140;28;20067;-72
2022/03/13 11:10:58;;;;;;;6.88;3.85;;;;;;;15.32;92.44;101156.81;5223984;28;20397;-72
2022/03/13 11:13:28;;;;;;;8.50;4.28;;;;;;;15.39;99.98;101149.59;5236739;28;20028;-72
2022/03/13 11:15:59;;;;;;;9.85;4.53;;;;;;;15.38;94.41;101149.78;5224734;28;20063;-72
2022/03/13 11:18:35;;;;;;;10.00;5.10;;;;;;;15.65;100.00;101162.59;5224878;28;20028;-72
2022/03/13 11:21:08;;;;;;;7.05;4.00;;;;;;;15.56;94.68;101155.59;5236432;28;20020;-72
2022/03/13 11:23:38;;;;;;;7.18;4.47;;;;;;;16.01;94.88;101151.75;5225392;28;20021;-73
2022/03/13 11:26:09;;;;;;;10.80;4.60;;;;;;;15.75;92.35;101144.19;5210641;28;20056;-72
2022/03/13 11:28:43;;;;;;;8.73;5.15;;;;;;;15.58;92.01;101147.31;5224766;28;20035;-71
2022/03/13 11:31:47;;;;;;;6.90;4.47;;;;;;;15.68;95.82;101148.69;5223589;28;20021;-72
2022/03/13 11:34:21;;;;;;;6.88;4.38;;;;;;;15.79;96.76;101150.06;5225128;28;20047;-72
2022/03/13 11:36:52;;;;;;;9.23;4.22;;;;;;;15.90;91.19;101146.00;5234498;28;20036;-72
2022/03/13 11:39:26;;;;;;;8.07;4.70;;;;;;;15.70;92.76;101149.34;5232057;28;20114;-72